Flight Track Log - Related Links

Times and Time Zones

All times are in EDT time to prevent confusion due to time zone crossing. See the N650FC flight status page for this flight to view local times or setup timezone preferences in your user account.

Time Position Orientation Groundspeed Altitude Reporting Facility
EDT Latitude Longitude Course Direction KTS MPH feet Rate Location/Type
Tue 04:07:15 PM 30.1864 -92.1247 164° South  Level FlightAware Approximate
Tue 04:08:02 PM 30.1075 -92.0981 233° Southwest 368 423 4,800  Level Houston Center
Tue 04:09:02 PM 30.0553 -92.1794 227° Southwest 283 326 7,700 2,571 Climbing Houston Center
Tue 04:10:01 PM 30.0028 -92.2439 230° Southwest 302 348 9,900 1,450 Climbing Houston Center
Tue 04:11:02 PM 29.9417 -92.3275 229° Southwest 319 367 10,600 1,438 Climbing Houston Center
Tue 04:12:02 PM 29.8767 -92.4133 227° Southwest 346 398 12,800 2,100 Climbing Houston Center
Tue 04:13:02 PM 29.8092 -92.4967 231° Southwest 353 406 14,800 2,050 Climbing Houston Center
Tue 04:14:02 PM 29.7503 -92.5797 229° Southwest 358 412 16,900 2,100 Climbing Houston Center
Tue 04:15:02 PM 29.6850 -92.6653 229° Southwest 358 412 19,000 2,050 Climbing Houston Center
Tue 04:16:02 PM 29.6239 -92.7461 228° Southwest 358 412 21,000 1,450 Climbing Houston Center
Tue 04:17:02 PM 29.5731 -92.8100 230° Southwest 358 412 21,900 500 Climbing Houston Center
Tue 04:18:02 PM 29.4928 -92.9189 230° Southwest 365 420 22,000  Climbing Houston Center
Tue 04:19:02 PM 29.4272 -93.0086 230° Southwest 371 427 21,900  Descending Houston Center
Tue 04:20:02 PM 29.3594 -93.1008 228° Southwest 376 433 22,000  Climbing Houston Center
Tue 04:21:02 PM 29.2897 -93.1881 249° West 376 433 21,900 -50 Descending Houston Center
Tue 04:22:02 PM 29.2550 -93.2922 270° West 352 405 21,900  Level Houston Center
Tue 04:23:02 PM 29.2556 -93.4114 272° West 357 411 21,900 50 Level Houston Center
Tue 04:24:02 PM 29.2583 -93.5281 270° West 369 425 22,000 50 Climbing Houston Center
Tue 04:25:02 PM 29.2586 -93.6519 271° West 381 438 22,000  Level Houston Center
Tue 04:26:02 PM 29.2608 -93.7758 273° West 387 445 22,000  Level Houston Center
Tue 04:27:02 PM 29.2653 -93.8853 271° West 387 445 22,000 -350 Level Houston Center
Tue 04:28:02 PM 29.2675 -94.0069 269° West 381 438 21,300 -1,450 Descending Houston Center
Tue 04:29:02 PM 29.2653 -94.1283 271° West 381 438 19,100 -2,200 Descending Houston Center
Tue 04:30:02 PM 29.2675 -94.2475 270° West 381 438 16,900 -2,250 Descending Houston Center
Tue 04:31:02 PM 29.2672 -94.3664 269° West 381 438 14,600 -2,645 Descending Houston Center
Tue 04:31:35 PM 29.2658 -94.4378 270° West 362 417 12,800 -1,920 Descending Houston Center
Tue 04:32:42 PM 29.2653 -94.5544 272° West 313 360 11,400 -1,078 Descending Houston Center
Tue 04:33:43 PM 29.2675 -94.6522 270° West 291 335 10,500 -829 Descending Houston Center
Tue 04:34:45 PM 29.2675 -94.7475 271° West 292 336 9,700 -797 Descending Houston Center
Tue 04:35:51 PM 29.2692 -94.8522 271° West 303 349 8,800 -701 Descending Houston Center
Tue 04:37:02 PM 29.2708 -94.9547 270° West 300 345 8,100 -687 Descending Houston Center
Tue 04:38:02 PM 29.2708 -95.0475 268° West 300 345 7,300 -833 Descending Houston Center
Tue 04:38:50 PM 29.2686 -95.1308 277° West 289 333 6,600 -833 Descending Houston Center
Tue 04:39:50 PM 29.2789 -95.2217 281° West 273 314 5,800 -787 Descending Houston Center
Tue 04:40:52 PM 29.2933 -95.3056 313° West 271 312 5,000 -769 Descending Houston Center
Tue 04:41:47 PM 29.3397 -95.3619 320° Northwest 271 312 4,300 -724 Descending Houston Center
Tue 04:42:48 PM 29.4008 -95.4211 316° Northwest 281 323 3,600 -605 Descending Houston Center
Tue 04:43:56 PM 29.4656 -95.4928 317° Northwest 283 326 3,000 -269 Descending Houston Center
Tue 04:45:02 PM 29.5283 -95.5594 318° Northwest 282 325 3,000 -492 Level Houston Center
Tue 04:45:58 PM 29.5792 -95.6117 344° North 236 272 2,000 -757 Descending Houston Center
Tue 04:46:53 PM 29.6286 -95.6278 358° North 175 201 1,600 -256 Descending Houston Center
Tue 04:47:55 PM 29.6767 -95.6297 280° West 153 176 1,500 -146 Descending Houston Center
Tue 04:48:56 PM 29.6819 -95.6633 181° South 148 170 1,300 -492 Descending Houston Center
Tue 04:49:57 PM 29.6464 -95.6642 181° South 127 146 500 -787 Descending Houston Center

Login

Don't have an account? Register now (free) for customized features, flight alerts, and more!